sensor_id;sensor_type;location;lat;lon;timestamp;P1;durP1;ratioP1;P2;durP2;ratioP2
21281;SDS011;10800;53.096;18.328;2023-07-13T00:02:26;25.20;;;11.60;;
21281;SDS011;10800;53.096;18.328;2023-07-13T00:07:31;23.10;;;8.77;;
21281;SDS011;10800;53.096;18.328;2023-07-13T00:12:37;25.60;;;9.67;;
21281;SDS011;10800;53.096;18.328;2023-07-13T00:17:45;23.17;;;8.43;;
21281;SDS011;10800;53.096;18.328;2023-07-13T00:22:51;15.23;;;7.47;;
21281;SDS011;10800;53.096;18.328;2023-07-13T00:27:57;21.80;;;8.23;;
21281;SDS011;10800;53.096;18.328;2023-07-13T00:33:03;17.60;;;9.17;;
21281;SDS011;10800;53.096;18.328;2023-07-13T00:38:10;12.80;;;8.23;;
21281;SDS011;10800;53.096;18.328;2023-07-13T00:43:16;19.93;;;8.77;;
21281;SDS011;10800;53.096;18.328;2023-07-13T00:48:25;12.07;;;6.60;;
21281;SDS011;10800;53.096;18.328;2023-07-13T00:53:32;7.17;;;4.83;;
21281;SDS011;10800;53.096;18.328;2023-07-13T00:58:41;7.13;;;4.87;;
21281;SDS011;10800;53.096;18.328;2023-07-13T01:03:46;11.53;;;5.47;;
21281;SDS011;10800;53.096;18.328;2023-07-13T01:08:52;9.13;;;5.60;;
21281;SDS011;10800;53.096;18.328;2023-07-13T01:13:57;8.53;;;5.40;;
21281;SDS011;10800;53.096;18.328;2023-07-13T01:19:08;14.17;;;7.63;;
21281;SDS011;10800;53.096;18.328;2023-07-13T01:24:14;17.27;;;7.30;;
21281;SDS011;10800;53.096;18.328;2023-07-13T01:29:19;12.03;;;7.47;;
21281;SDS011;10800;53.096;18.328;2023-07-13T01:34:26;7.93;;;5.57;;
21281;SDS011;10800;53.096;18.328;2023-07-13T01:39:32;8.33;;;5.77;;
21281;SDS011;10800;53.096;18.328;2023-07-13T01:44:37;7.83;;;5.33;;
21281;SDS011;10800;53.096;18.328;2023-07-13T01:49:43;10.00;;;5.40;;
21281;SDS011;10800;53.096;18.328;2023-07-13T01:54:51;10.13;;;5.53;;
21281;SDS011;10800;53.096;18.328;2023-07-13T01:59:56;8.60;;;5.50;;
21281;SDS011;10800;53.096;18.328;2023-07-13T02:05:02;8.17;;;5.70;;
21281;SDS011;10800;53.096;18.328;2023-07-13T02:10:09;8.50;;;5.63;;
21281;SDS011;10800;53.096;18.328;2023-07-13T02:15:15;13.37;;;6.97;;
21281;SDS011;10800;53.096;18.328;2023-07-13T02:20:21;11.27;;;7.23;;
21281;SDS011;10800;53.096;18.328;2023-07-13T02:25:27;15.23;;;6.67;;
21281;SDS011;10800;53.096;18.328;2023-07-13T02:30:33;11.60;;;6.03;;
21281;SDS011;10800;53.096;18.328;2023-07-13T02:35:39;8.07;;;6.10;;
21281;SDS011;10800;53.096;18.328;2023-07-13T02:40:45;9.80;;;6.33;;
21281;SDS011;10800;53.096;18.328;2023-07-13T02:45:51;8.83;;;5.93;;
21281;SDS011;10800;53.096;18.328;2023-07-13T02:50:57;12.43;;;6.80;;
21281;SDS011;10800;53.096;18.328;2023-07-13T02:56:03;8.63;;;6.03;;
21281;SDS011;10800;53.096;18.328;2023-07-13T03:01:10;8.63;;;6.03;;
21281;SDS011;10800;53.096;18.328;2023-07-13T03:06:19;9.37;;;5.47;;
21281;SDS011;10800;53.096;18.328;2023-07-13T03:11:25;12.77;;;6.63;;
21281;SDS011;10800;53.096;18.328;2023-07-13T03:16:31;7.33;;;5.43;;
21281;SDS011;10800;53.096;18.328;2023-07-13T03:21:36;9.93;;;6.43;;
21281;SDS011;10800;53.096;18.328;2023-07-13T03:26:42;9.07;;;5.87;;
21281;SDS011;10800;53.096;18.328;2023-07-13T03:31:48;13.13;;;6.50;;
21281;SDS011;10800;53.096;18.328;2023-07-13T03:36:54;15.47;;;5.90;;
21281;SDS011;10800;53.096;18.328;2023-07-13T03:42:00;11.03;;;5.80;;
21281;SDS011;10800;53.096;18.328;2023-07-13T03:47:06;11.27;;;6.13;;
21281;SDS011;10800;53.096;18.328;2023-07-13T03:52:12;11.00;;;6.23;;
21281;SDS011;10800;53.096;18.328;2023-07-13T03:57:18;14.57;;;7.57;;
21281;SDS011;10800;53.096;18.328;2023-07-13T04:02:24;18.50;;;8.67;;
21281;SDS011;10800;53.096;18.328;2023-07-13T04:07:30;11.03;;;6.50;;
21281;SDS011;10800;53.096;18.328;2023-07-13T04:12:35;9.77;;;5.60;;
21281;SDS011;10800;53.096;18.328;2023-07-13T04:17:42;14.60;;;6.53;;
21281;SDS011;10800;53.096;18.328;2023-07-13T04:22:47;10.70;;;6.03;;
21281;SDS011;10800;53.096;18.328;2023-07-13T04:27:56;8.57;;;5.17;;
21281;SDS011;10800;53.096;18.328;2023-07-13T04:33:02;8.53;;;5.77;;
21281;SDS011;10800;53.096;18.328;2023-07-13T04:38:08;9.70;;;6.33;;
21281;SDS011;10800;53.096;18.328;2023-07-13T04:43:14;7.67;;;5.63;;
21281;SDS011;10800;53.096;18.328;2023-07-13T04:48:20;6.20;;;4.87;;
21281;SDS011;10800;53.096;18.328;2023-07-13T04:53:27;10.90;;;5.03;;
21281;SDS011;10800;53.096;18.328;2023-07-13T04:58:33;7.33;;;5.07;;
21281;SDS011;10800;53.096;18.328;2023-07-13T05:03:53;7.00;;;5.00;;
21281;SDS011;10800;53.096;18.328;2023-07-13T05:08:55;8.63;;;5.20;;
21281;SDS011;10800;53.096;18.328;2023-07-13T05:14:00;11.97;;;5.23;;
21281;SDS011;10800;53.096;18.328;2023-07-13T05:19:06;6.27;;;4.90;;
21281;SDS011;10800;53.096;18.328;2023-07-13T05:24:12;9.53;;;5.57;;
21281;SDS011;10800;53.096;18.328;2023-07-13T05:29:20;7.93;;;5.00;;
21281;SDS011;10800;53.096;18.328;2023-07-13T05:34:26;7.90;;;5.50;;
21281;SDS011;10800;53.096;18.328;2023-07-13T05:39:32;6.53;;;4.90;;
21281;SDS011;10800;53.096;18.328;2023-07-13T05:44:37;7.53;;;4.30;;
21281;SDS011;10800;53.096;18.328;2023-07-13T05:49:43;7.20;;;4.27;;
21281;SDS011;10800;53.096;18.328;2023-07-13T05:54:49;7.83;;;4.20;;
21281;SDS011;10800;53.096;18.328;2023-07-13T05:59:55;9.70;;;3.37;;
21281;SDS011;10800;53.096;18.328;2023-07-13T06:05:01;4.43;;;2.60;;
21281;SDS011;10800;53.096;18.328;2023-07-13T06:10:06;6.60;;;3.05;;
21281;SDS011;10800;53.096;18.328;2023-07-13T06:15:13;4.92;;;2.60;;
21281;SDS011;10800;53.096;18.328;2023-07-13T06:20:21;3.57;;;2.40;;
21281;SDS011;10800;53.096;18.328;2023-07-13T06:25:27;5.05;;;2.47;;
21281;SDS011;10800;53.096;18.328;2023-07-13T06:30:33;38.23;;;5.10;;
21281;SDS011;10800;53.096;18.328;2023-07-13T06:35:39;20.97;;;4.53;;
21281;SDS011;10800;53.096;18.328;2023-07-13T06:40:44;21.25;;;2.45;;
21281;SDS011;10800;53.096;18.328;2023-07-13T06:45:54;58.80;;;6.95;;
21281;SDS011;10800;53.096;18.328;2023-07-13T06:51:13;18.20;;;3.37;;
21281;SDS011;10800;53.096;18.328;2023-07-13T07:01:46;31.95;;;5.25;;
21281;SDS011;10800;53.096;18.328;2023-07-13T07:06:58;4.05;;;1.47;;
21281;SDS011;10800;53.096;18.328;2023-07-13T07:12:29;4.30;;;1.30;;
21281;SDS011;10800;53.096;18.328;2023-07-13T07:18:03;6.72;;;1.80;;
21281;SDS011;10800;53.096;18.328;2023-07-13T07:23:22;13.95;;;2.05;;
21281;SDS011;10800;53.096;18.328;2023-07-13T07:28:59;7.05;;;1.70;;
21281;SDS011;10800;53.096;18.328;2023-07-13T07:34:35;4.87;;;2.52;;
21281;SDS011;10800;53.096;18.328;2023-07-13T07:40:06;3.27;;;2.55;;
21281;SDS011;10800;53.096;18.328;2023-07-13T07:51:17;4.85;;;1.90;;
21281;SDS011;10800;53.096;18.328;2023-07-13T08:01:52;3.80;;;1.85;;
21281;SDS011;10800;53.096;18.328;2023-07-13T08:06:59;3.20;;;1.70;;
21281;SDS011;10800;53.096;18.328;2023-07-13T08:12:06;3.08;;;1.87;;
21281;SDS011;10800;53.096;18.328;2023-07-13T08:17:13;5.37;;;1.40;;
21281;SDS011;10800;53.096;18.328;2023-07-13T08:22:18;5.95;;;1.70;;
21281;SDS011;10800;53.096;18.328;2023-07-13T08:27:24;4.20;;;1.67;;
21281;SDS011;10800;53.096;18.328;2023-07-13T08:32:31;3.65;;;1.47;;
21281;SDS011;10800;53.096;18.328;2023-07-13T08:37:37;1.57;;;1.40;;
21281;SDS011;10800;53.096;18.328;2023-07-13T08:42:44;3.60;;;1.60;;
21281;SDS011;10800;53.096;18.328;2023-07-13T08:47:55;4.30;;;1.25;;
21281;SDS011;10800;53.096;18.328;2023-07-13T08:53:11;3.37;;;1.60;;
21281;SDS011;10800;53.096;18.328;2023-07-13T08:58:19;3.02;;;1.20;;
21281;SDS011;10800;53.096;18.328;2023-07-13T09:03:26;3.58;;;1.40;;
21281;SDS011;10800;53.096;18.328;2023-07-13T09:08:36;2.17;;;1.20;;
21281;SDS011;10800;53.096;18.328;2023-07-13T09:13:54;1.98;;;1.60;;
21281;SDS011;10800;53.096;18.328;2023-07-13T09:19:05;6.78;;;1.62;;
21281;SDS011;10800;53.096;18.328;2023-07-13T09:29:37;3.52;;;1.32;;
21281;SDS011;10800;53.096;18.328;2023-07-13T09:34:50;5.00;;;1.20;;
21281;SDS011;10800;53.096;18.328;2023-07-13T09:39:57;2.42;;;1.52;;
21281;SDS011;10800;53.096;18.328;2023-07-13T09:45:04;6.70;;;1.70;;
21281;SDS011;10800;53.096;18.328;2023-07-13T09:50:15;3.47;;;1.50;;
21281;SDS011;10800;53.096;18.328;2023-07-13T09:55:25;7.30;;;1.87;;
21281;SDS011;10800;53.096;18.328;2023-07-13T10:00:32;4.22;;;1.98;;
21281;SDS011;10800;53.096;18.328;2023-07-13T10:05:39;4.97;;;1.87;;
21281;SDS011;10800;53.096;18.328;2023-07-13T10:10:46;5.87;;;2.35;;
21281;SDS011;10800;53.096;18.328;2023-07-13T10:15:55;8.43;;;2.10;;
21281;SDS011;10800;53.096;18.328;2023-07-13T10:21:16;5.60;;;2.02;;
21281;SDS011;10800;53.096;18.328;2023-07-13T10:26:29;10.05;;;2.27;;
21281;SDS011;10800;53.096;18.328;2023-07-13T10:31:38;2.55;;;1.80;;
21281;SDS011;10800;53.096;18.328;2023-07-13T10:36:46;2.67;;;1.95;;
21281;SDS011;10800;53.096;18.328;2023-07-13T10:41:57;5.35;;;2.10;;
21281;SDS011;10800;53.096;18.328;2023-07-13T10:47:13;3.15;;;2.00;;
21281;SDS011;10800;53.096;18.328;2023-07-13T10:57:51;3.50;;;1.98;;
21281;SDS011;10800;53.096;18.328;2023-07-13T11:02:58;2.45;;;2.05;;
21281;SDS011;10800;53.096;18.328;2023-07-13T11:08:15;6.83;;;2.20;;
21281;SDS011;10800;53.096;18.328;2023-07-13T11:24:20;3.75;;;1.72;;
21281;SDS011;10800;53.096;18.328;2023-07-13T11:34:46;2.42;;;2.10;;
21281;SDS011;10800;53.096;18.328;2023-07-13T11:39:52;3.30;;;1.75;;
21281;SDS011;10800;53.096;18.328;2023-07-13T11:45:12;2.35;;;1.50;;
21281;SDS011;10800;53.096;18.328;2023-07-13T11:50:17;4.92;;;1.77;;
21281;SDS011;10800;53.096;18.328;2023-07-13T11:55:24;1.55;;;1.30;;
21281;SDS011;10800;53.096;18.328;2023-07-13T12:00:31;2.50;;;1.60;;
21281;SDS011;10800;53.096;18.328;2023-07-13T12:05:38;2.08;;;1.42;;
21281;SDS011;10800;53.096;18.328;2023-07-13T12:10:47;2.20;;;1.72;;
21281;SDS011;10800;53.096;18.328;2023-07-13T12:15:52;3.47;;;1.87;;
21281;SDS011;10800;53.096;18.328;2023-07-13T12:21:03;3.35;;;2.33;;
21281;SDS011;10800;53.096;18.328;2023-07-13T12:26:12;4.80;;;1.95;;
21281;SDS011;10800;53.096;18.328;2023-07-13T12:31:42;2.42;;;1.60;;
21281;SDS011;10800;53.096;18.328;2023-07-13T12:36:38;1.77;;;1.60;;
21281;SDS011;10800;53.096;18.328;2023-07-13T12:41:42;1.65;;;1.32;;
21281;SDS011;10800;53.096;18.328;2023-07-13T12:46:52;3.85;;;1.60;;
21281;SDS011;10800;53.096;18.328;2023-07-13T12:52:00;1.30;;;1.20;;
21281;SDS011;10800;53.096;18.328;2023-07-13T12:57:12;1.40;;;1.30;;
21281;SDS011;10800;53.096;18.328;2023-07-13T13:02:26;3.17;;;1.37;;
21281;SDS011;10800;53.096;18.328;2023-07-13T13:07:38;1.47;;;1.20;;
21281;SDS011;10800;53.096;18.328;2023-07-13T13:12:45;2.72;;;1.20;;
21281;SDS011;10800;53.096;18.328;2023-07-13T13:17:50;1.90;;;1.07;;
21281;SDS011;10800;53.096;18.328;2023-07-13T13:22:56;3.40;;;1.50;;
21281;SDS011;10800;53.096;18.328;2023-07-13T13:33:44;5.17;;;2.30;;
21281;SDS011;10800;53.096;18.328;2023-07-13T13:39:02;6.08;;;2.83;;
21281;SDS011;10800;53.096;18.328;2023-07-13T13:44:16;2.93;;;2.00;;
21281;SDS011;10800;53.096;18.328;2023-07-13T13:49:27;4.70;;;2.33;;
21281;SDS011;10800;53.096;18.328;2023-07-13T13:54:34;3.02;;;2.27;;
21281;SDS011;10800;53.096;18.328;2023-07-13T13:59:45;3.67;;;2.27;;
21281;SDS011;10800;53.096;18.328;2023-07-13T14:05:05;3.72;;;2.33;;
21281;SDS011;10800;53.096;18.328;2023-07-13T14:10:18;8.73;;;2.58;;
21281;SDS011;10800;53.096;18.328;2023-07-13T14:15:25;8.15;;;2.60;;
21281;SDS011;10800;53.096;18.328;2023-07-13T14:20:31;3.08;;;2.20;;
21281;SDS011;10800;53.096;18.328;2023-07-13T14:25:37;3.12;;;2.10;;
21281;SDS011;10800;53.096;18.328;2023-07-13T14:30:53;3.52;;;1.67;;
21281;SDS011;10800;53.096;18.328;2023-07-13T14:36:42;1.95;;;1.52;;
21281;SDS011;10800;53.096;18.328;2023-07-13T14:42:30;7.87;;;1.70;;
21281;SDS011;10800;53.096;18.328;2023-07-13T14:47:59;2.98;;;1.47;;
21281;SDS011;10800;53.096;18.328;2023-07-13T14:58:57;1.60;;;1.30;;
21281;SDS011;10800;53.096;18.328;2023-07-13T15:04:18;2.80;;;1.60;;
21281;SDS011;10800;53.096;18.328;2023-07-13T15:14:45;5.87;;;1.50;;
21281;SDS011;10800;53.096;18.328;2023-07-13T15:19:56;2.02;;;1.37;;
21281;SDS011;10800;53.096;18.328;2023-07-13T15:25:08;2.12;;;1.35;;
21281;SDS011;10800;53.096;18.328;2023-07-13T15:30:25;2.12;;;1.87;;
21281;SDS011;10800;53.096;18.328;2023-07-13T15:35:33;1.95;;;1.35;;
21281;SDS011;10800;53.096;18.328;2023-07-13T15:40:38;1.32;;;1.17;;
21281;SDS011;10800;53.096;18.328;2023-07-13T15:45:44;1.75;;;1.30;;
21281;SDS011;10800;53.096;18.328;2023-07-13T15:50:51;1.15;;;1.05;;
21281;SDS011;10800;53.096;18.328;2023-07-13T15:56:38;1.27;;;0.90;;
21281;SDS011;10800;53.096;18.328;2023-07-13T16:01:28;2.52;;;1.45;;
21281;SDS011;10800;53.096;18.328;2023-07-13T16:06:33;2.00;;;1.55;;
21281;SDS011;10800;53.096;18.328;2023-07-13T16:11:46;3.50;;;1.47;;
21281;SDS011;10800;53.096;18.328;2023-07-13T16:27:54;1.40;;;1.30;;
21281;SDS011;10800;53.096;18.328;2023-07-13T16:38:20;1.70;;;1.30;;
21281;SDS011;10800;53.096;18.328;2023-07-13T16:43:30;5.53;;;1.50;;
21281;SDS011;10800;53.096;18.328;2023-07-13T16:48:39;4.12;;;1.55;;
21281;SDS011;10800;53.096;18.328;2023-07-13T16:59:53;3.67;;;1.37;;
21281;SDS011;10800;53.096;18.328;2023-07-13T17:05:01;4.20;;;1.37;;
21281;SDS011;10800;53.096;18.328;2023-07-13T17:10:15;5.78;;;1.62;;
21281;SDS011;10800;53.096;18.328;2023-07-13T17:15:42;2.40;;;1.50;;
21281;SDS011;10800;53.096;18.328;2023-07-13T17:21:39;2.72;;;1.17;;
21281;SDS011;10800;53.096;18.328;2023-07-13T17:27:18;4.30;;;1.52;;
21281;SDS011;10800;53.096;18.328;2023-07-13T17:50:42;4.17;;;1.45;;
21281;SDS011;10800;53.096;18.328;2023-07-13T18:01:40;8.10;;;2.25;;
21281;SDS011;10800;53.096;18.328;2023-07-13T18:06:55;2.87;;;1.85;;
21281;SDS011;10800;53.096;18.328;2023-07-13T18:12:20;3.08;;;1.77;;
21281;SDS011;10800;53.096;18.328;2023-07-13T18:17:34;5.15;;;1.57;;
21281;SDS011;10800;53.096;18.328;2023-07-13T18:22:40;6.83;;;1.80;;
21281;SDS011;10800;53.096;18.328;2023-07-13T18:27:49;3.40;;;1.52;;
21281;SDS011;10800;53.096;18.328;2023-07-13T18:32:57;4.30;;;1.75;;
21281;SDS011;10800;53.096;18.328;2023-07-13T18:38:14;4.67;;;1.98;;
21281;SDS011;10800;53.096;18.328;2023-07-13T18:43:24;2.02;;;1.40;;
21281;SDS011;10800;53.096;18.328;2023-07-13T18:48:50;2.98;;;1.22;;
21281;SDS011;10800;53.096;18.328;2023-07-13T18:54:29;1.72;;;1.35;;
21281;SDS011;10800;53.096;18.328;2023-07-13T18:59:37;3.80;;;1.50;;
21281;SDS011;10800;53.096;18.328;2023-07-13T19:04:53;2.50;;;1.43;;
21281;SDS011;10800;53.096;18.328;2023-07-13T19:10:13;9.70;;;2.77;;
21281;SDS011;10800;53.096;18.328;2023-07-13T19:15:26;25.35;;;8.48;;
21281;SDS011;10800;53.096;18.328;2023-07-13T19:20:41;28.00;;;10.28;;
21281;SDS011;10800;53.096;18.328;2023-07-13T19:25:53;32.20;;;11.70;;
21281;SDS011;10800;53.096;18.328;2023-07-13T19:31:50;44.83;;;13.97;;
21281;SDS011;10800;53.096;18.328;2023-07-13T19:37:20;44.17;;;13.87;;
21281;SDS011;10800;53.096;18.328;2023-07-13T19:42:37;23.52;;;7.75;;
21281;SDS011;10800;53.096;18.328;2023-07-13T19:47:53;13.90;;;5.37;;
21281;SDS011;10800;53.096;18.328;2023-07-13T19:53:02;28.60;;;8.03;;
21281;SDS011;10800;53.096;18.328;2023-07-13T19:58:14;23.53;;;8.47;;
21281;SDS011;10800;53.096;18.328;2023-07-13T20:03:26;22.33;;;9.10;;
21281;SDS011;10800;53.096;18.328;2023-07-13T20:08:34;20.10;;;8.73;;
21281;SDS011;10800;53.096;18.328;2023-07-13T20:13:48;21.97;;;9.00;;
21281;SDS011;10800;53.096;18.328;2023-07-13T20:18:59;18.65;;;7.45;;
21281;SDS011;10800;53.096;18.328;2023-07-13T20:24:19;20.53;;;7.93;;
21281;SDS011;10800;53.096;18.328;2023-07-13T20:29:33;27.30;;;9.47;;
21281;SDS011;10800;53.096;18.328;2023-07-13T20:34:41;28.47;;;10.10;;
21281;SDS011;10800;53.096;18.328;2023-07-13T20:40:01;27.37;;;9.23;;
21281;SDS011;10800;53.096;18.328;2023-07-13T20:45:31;19.03;;;7.93;;
21281;SDS011;10800;53.096;18.328;2023-07-13T20:50:36;19.03;;;7.47;;
21281;SDS011;10800;53.096;18.328;2023-07-13T20:55:49;12.87;;;6.67;;
21281;SDS011;10800;53.096;18.328;2023-07-13T21:01:13;15.93;;;5.83;;
21281;SDS011;10800;53.096;18.328;2023-07-13T21:06:39;10.13;;;4.20;;
21281;SDS011;10800;53.096;18.328;2023-07-13T21:12:18;8.27;;;3.40;;
21281;SDS011;10800;53.096;18.328;2023-07-13T21:17:50;3.97;;;2.57;;
21281;SDS011;10800;53.096;18.328;2023-07-13T21:23:08;2.37;;;2.00;;
21281;SDS011;10800;53.096;18.328;2023-07-13T21:34:09;9.53;;;3.83;;
21281;SDS011;10800;53.096;18.328;2023-07-13T21:39:49;7.63;;;2.97;;
21281;SDS011;10800;53.096;18.328;2023-07-13T21:45:19;5.53;;;2.93;;
21281;SDS011;10800;53.096;18.328;2023-07-13T21:50:52;4.07;;;1.87;;
21281;SDS011;10800;53.096;18.328;2023-07-13T21:55:44;2.87;;;1.87;;
21281;SDS011;10800;53.096;18.328;2023-07-13T22:00:51;3.33;;;1.27;;
21281;SDS011;10800;53.096;18.328;2023-07-13T22:06:17;5.40;;;1.45;;
21281;SDS011;10800;53.096;18.328;2023-07-13T22:11:26;1.90;;;1.50;;
21281;SDS011;10800;53.096;18.328;2023-07-13T22:16:33;2.00;;;1.43;;
21281;SDS011;10800;53.096;18.328;2023-07-13T22:21:45;3.37;;;1.40;;
21281;SDS011;10800;53.096;18.328;2023-07-13T22:27:03;7.20;;;1.60;;
21281;SDS011;10800;53.096;18.328;2023-07-13T22:32:08;4.73;;;1.47;;
21281;SDS011;10800;53.096;18.328;2023-07-13T22:37:18;2.53;;;1.77;;
21281;SDS011;10800;53.096;18.328;2023-07-13T22:42:36;2.67;;;1.57;;
21281;SDS011;10800;53.096;18.328;2023-07-13T22:47:48;3.40;;;1.80;;
21281;SDS011;10800;53.096;18.328;2023-07-13T22:52:59;2.97;;;2.07;;
21281;SDS011;10800;53.096;18.328;2023-07-13T22:58:10;5.03;;;1.93;;
21281;SDS011;10800;53.096;18.328;2023-07-13T23:03:17;3.17;;;2.00;;
21281;SDS011;10800;53.096;18.328;2023-07-13T23:08:26;2.33;;;2.10;;
21281;SDS011;10800;53.096;18.328;2023-07-13T23:13:33;3.60;;;2.40;;
21281;SDS011;10800;53.096;18.328;2023-07-13T23:18:43;3.07;;;2.30;;
21281;SDS011;10800;53.096;18.328;2023-07-13T23:23:51;4.77;;;2.40;;
21281;SDS011;10800;53.096;18.328;2023-07-13T23:28:59;3.47;;;2.20;;
21281;SDS011;10800;53.096;18.328;2023-07-13T23:34:06;2.77;;;2.03;;
21281;SDS011;10800;53.096;18.328;2023-07-13T23:39:15;3.30;;;2.00;;
21281;SDS011;10800;53.096;18.328;2023-07-13T23:44:25;4.50;;;2.10;;
21281;SDS011;10800;53.096;18.328;2023-07-13T23:49:36;2.10;;;1.60;;
21281;SDS011;10800;53.096;18.328;2023-07-13T23:54:46;2.87;;;1.90;;
21281;SDS011;10800;53.096;18.328;2023-07-13T23:59:56;2.40;;;1.50;;
